sensor_id;sensor_type;location;lat;lon;timestamp;pressure;altitude;pressure_sealevel;temperature;humidity
85821;BME280;76265;50.102;8.854;2024-03-06T00:01:55;100608.44;;;7.31;87.99
85821;BME280;76265;50.102;8.854;2024-03-06T00:04:22;100604.03;;;7.30;87.43
85821;BME280;76265;50.102;8.854;2024-03-06T00:06:49;100614.84;;;7.28;87.73
85821;BME280;76265;50.102;8.854;2024-03-06T00:09:17;100614.00;;;7.28;87.77
85821;BME280;76265;50.102;8.854;2024-03-06T00:11:45;100612.38;;;7.25;87.25
85821;BME280;76265;50.102;8.854;2024-03-06T00:14:13;100616.88;;;7.25;87.71
85821;BME280;76265;50.102;8.854;2024-03-06T00:16:42;100616.97;;;7.23;87.23
85821;BME280;76265;50.102;8.854;2024-03-06T00:19:09;100612.69;;;7.21;87.19
85821;BME280;76265;50.102;8.854;2024-03-06T00:21:36;100621.69;;;7.20;87.06
85821;BME280;76265;50.102;8.854;2024-03-06T00:24:03;100619.06;;;7.18;86.88
85821;BME280;76265;50.102;8.854;2024-03-06T00:26:31;100621.00;;;7.16;87.52
85821;BME280;76265;50.102;8.854;2024-03-06T00:28:58;100622.91;;;7.14;87.61
85821;BME280;76265;50.102;8.854;2024-03-06T00:31:26;100623.09;;;7.11;87.78
85821;BME280;76265;50.102;8.854;2024-03-06T00:33:53;100622.25;;;7.10;87.19
85821;BME280;76265;50.102;8.854;2024-03-06T00:36:20;100628.66;;;7.08;87.27
85821;BME280;76265;50.102;8.854;2024-03-06T00:38:48;100628.88;;;7.05;86.98
85821;BME280;76265;50.102;8.854;2024-03-06T00:41:15;100632.72;;;7.01;86.90
85821;BME280;76265;50.102;8.854;2024-03-06T00:43:42;100636.72;;;6.94;87.13
85821;BME280;76265;50.102;8.854;2024-03-06T00:46:08;100639.41;;;6.94;87.17
85821;BME280;76265;50.102;8.854;2024-03-06T00:48:37;100644.00;;;6.92;87.39
85821;BME280;76265;50.102;8.854;2024-03-06T00:51:04;100639.69;;;6.89;87.64
85821;BME280;76265;50.102;8.854;2024-03-06T00:53:32;100640.84;;;6.85;87.58
85821;BME280;76265;50.102;8.854;2024-03-06T00:55:59;100642.66;;;6.85;88.06
85821;BME280;76265;50.102;8.854;2024-03-06T00:58:26;100647.25;;;6.83;87.85
85821;BME280;76265;50.102;8.854;2024-03-06T01:00:53;100649.19;;;6.81;87.94
85821;BME280;76265;50.102;8.854;2024-03-06T01:03:20;100651.09;;;6.78;88.31
85821;BME280;76265;50.102;8.854;2024-03-06T01:05:48;100654.06;;;6.74;88.02
85821;BME280;76265;50.102;8.854;2024-03-06T01:08:15;100666.41;;;6.76;88.26
85821;BME280;76265;50.102;8.854;2024-03-06T01:10:43;100663.72;;;6.76;88.10
85821;BME280;76265;50.102;8.854;2024-03-06T01:13:10;100654.91;;;6.74;88.30
85821;BME280;76265;50.102;8.854;2024-03-06T01:15:38;100656.84;;;6.72;88.38
85821;BME280;76265;50.102;8.854;2024-03-06T01:18:05;100658.66;;;6.72;88.59
85821;BME280;76265;50.102;8.854;2024-03-06T01:20:32;100656.06;;;6.70;88.48
85821;BME280;76265;50.102;8.854;2024-03-06T01:23:00;100663.31;;;6.68;88.43
85821;BME280;76265;50.102;8.854;2024-03-06T01:25:27;100659.88;;;6.66;88.20
85821;BME280;76265;50.102;8.854;2024-03-06T01:27:54;100648.41;;;6.64;87.99
85821;BME280;76265;50.102;8.854;2024-03-06T01:30:22;100649.56;;;6.60;87.55
85821;BME280;76265;50.102;8.854;2024-03-06T01:32:49;100654.13;;;6.58;87.58
85821;BME280;76265;50.102;8.854;2024-03-06T01:35:16;100660.66;;;6.54;87.51
85821;BME280;76265;50.102;8.854;2024-03-06T01:37:43;100664.56;;;6.48;87.81
85821;BME280;76265;50.102;8.854;2024-03-06T01:40:12;100657.75;;;6.43;87.84
85821;BME280;76265;50.102;8.854;2024-03-06T01:42:39;100665.19;;;6.38;87.82
85821;BME280;76265;50.102;8.854;2024-03-06T01:45:07;100663.75;;;6.32;87.68
85821;BME280;76265;50.102;8.854;2024-03-06T01:47:34;100663.94;;;6.29;87.71
85821;BME280;76265;50.102;8.854;2024-03-06T01:50:02;100666.06;;;6.24;87.92
85821;BME280;76265;50.102;8.854;2024-03-06T01:52:31;100668.06;;;6.21;87.83
85821;BME280;76265;50.102;8.854;2024-03-06T01:54:59;100670.13;;;6.15;87.66
85821;BME280;76265;50.102;8.854;2024-03-06T01:57:27;100666.84;;;6.10;87.58
85821;BME280;76265;50.102;8.854;2024-03-06T01:59:54;100667.03;;;6.07;88.03
85821;BME280;76265;50.102;8.854;2024-03-06T02:02:21;100671.81;;;6.02;87.64
85821;BME280;76265;50.102;8.854;2024-03-06T02:04:49;100670.19;;;6.00;87.53
85821;BME280;76265;50.102;8.854;2024-03-06T02:07:16;100671.38;;;5.94;86.94
85821;BME280;76265;50.102;8.854;2024-03-06T02:09:44;100671.56;;;5.91;86.86
85821;BME280;76265;50.102;8.854;2024-03-06T02:12:12;100675.34;;;5.87;86.37
85821;BME280;76265;50.102;8.854;2024-03-06T02:14:41;100670.28;;;5.82;86.22
85821;BME280;76265;50.102;8.854;2024-03-06T02:17:08;100671.50;;;5.77;86.36
85821;BME280;76265;50.102;8.854;2024-03-06T02:19:38;100671.69;;;5.74;86.06
85821;BME280;76265;50.102;8.854;2024-03-06T02:22:07;100675.44;;;5.70;85.76
85821;BME280;76265;50.102;8.854;2024-03-06T02:24:35;100678.50;;;5.64;85.68
85821;BME280;76265;50.102;8.854;2024-03-06T02:27:02;100669.00;;;5.58;85.76
85821;BME280;76265;50.102;8.854;2024-03-06T02:29:31;100675.59;;;5.52;85.81
85821;BME280;76265;50.102;8.854;2024-03-06T02:31:59;100684.81;;;5.47;86.34
85821;BME280;76265;50.102;8.854;2024-03-06T02:34:28;100681.44;;;5.43;85.96
85821;BME280;76265;50.102;8.854;2024-03-06T02:36:55;100678.06;;;5.40;86.47
85821;BME280;76265;50.102;8.854;2024-03-06T02:39:24;100680.06;;;5.36;86.90
85821;BME280;76265;50.102;8.854;2024-03-06T02:41:51;100663.44;;;5.31;86.34
85821;BME280;76265;50.102;8.854;2024-03-06T02:44:18;100676.09;;;5.28;86.51
85821;BME280;76265;50.102;8.854;2024-03-06T02:46:47;100665.81;;;5.20;86.34
85821;BME280;76265;50.102;8.854;2024-03-06T02:49:15;100664.91;;;5.21;86.33
85821;BME280;76265;50.102;8.854;2024-03-06T02:51:42;100663.31;;;5.17;86.51
85821;BME280;76265;50.102;8.854;2024-03-06T02:54:09;100658.25;;;5.12;86.71
85821;BME280;76265;50.102;8.854;2024-03-06T02:56:37;100661.88;;;5.11;86.51
85821;BME280;76265;50.102;8.854;2024-03-06T02:59:04;100663.84;;;5.08;86.36
85821;BME280;76265;50.102;8.854;2024-03-06T03:01:31;100676.44;;;5.06;86.63
85821;BME280;76265;50.102;8.854;2024-03-06T03:03:59;100672.22;;;5.02;86.94
85821;BME280;76265;50.102;8.854;2024-03-06T03:06:26;100676.78;;;5.00;87.53
85821;BME280;76265;50.102;8.854;2024-03-06T03:08:55;100675.19;;;4.95;88.02
85821;BME280;76265;50.102;8.854;2024-03-06T03:11:21;100679.94;;;4.90;88.09
85821;BME280;76265;50.102;8.854;2024-03-06T03:13:50;100675.53;;;4.89;88.07
85821;BME280;76265;50.102;8.854;2024-03-06T03:16:17;100655.53;;;4.81;88.10
85821;BME280;76265;50.102;8.854;2024-03-06T03:18:44;100673.03;;;4.86;87.98
85821;BME280;76265;50.102;8.854;2024-03-06T03:21:11;100673.97;;;4.85;87.81
85821;BME280;76265;50.102;8.854;2024-03-06T03:23:39;100682.00;;;4.85;87.38
85821;BME280;76265;50.102;8.854;2024-03-06T03:26:06;100692.75;;;4.84;88.21
85821;BME280;76265;50.102;8.854;2024-03-06T03:28:33;100696.28;;;4.84;88.46
85821;BME280;76265;50.102;8.854;2024-03-06T03:31:02;100692.84;;;4.82;88.75
85821;BME280;76265;50.102;8.854;2024-03-06T03:33:29;100697.41;;;4.80;88.75
85821;BME280;76265;50.102;8.854;2024-03-06T03:35:56;100704.53;;;4.80;88.60
85821;BME280;76265;50.102;8.854;2024-03-06T03:38:23;100698.44;;;4.78;88.70
85821;BME280;76265;50.102;8.854;2024-03-06T03:40:50;100706.53;;;4.76;88.79
85821;BME280;76265;50.102;8.854;2024-03-06T03:43:17;100718.22;;;4.74;88.82
85821;BME280;76265;50.102;8.854;2024-03-06T03:45:45;100707.63;;;4.72;89.33
85821;BME280;76265;50.102;8.854;2024-03-06T03:48:13;100711.25;;;4.71;88.98
85821;BME280;76265;50.102;8.854;2024-03-06T03:50:40;100705.91;;;4.71;88.94
85821;BME280;76265;50.102;8.854;2024-03-06T03:53:07;100705.97;;;4.70;88.61
85821;BME280;76265;50.102;8.854;2024-03-06T03:55:34;100710.44;;;4.69;88.37
85821;BME280;76265;50.102;8.854;2024-03-06T03:58:02;100712.31;;;4.67;88.20
85821;BME280;76265;50.102;8.854;2024-03-06T04:00:29;100715.94;;;4.66;88.69
85821;BME280;76265;50.102;8.854;2024-03-06T04:02:56;100707.16;;;4.64;88.66
85821;BME280;76265;50.102;8.854;2024-03-06T04:05:25;100710.78;;;4.63;87.99
85821;BME280;76265;50.102;8.854;2024-03-06T04:07:52;100708.19;;;4.61;88.15
85821;BME280;76265;50.102;8.854;2024-03-06T04:10:19;100710.25;;;4.56;87.46
85821;BME280;76265;50.102;8.854;2024-03-06T04:12:46;100729.00;;;4.55;87.42
85821;BME280;76265;50.102;8.854;2024-03-06T04:15:14;100723.81;;;4.52;87.42
85821;BME280;76265;50.102;8.854;2024-03-06T04:17:41;100724.00;;;4.49;87.62
85821;BME280;76265;50.102;8.854;2024-03-06T04:20:10;100719.69;;;4.46;87.46
85821;BME280;76265;50.102;8.854;2024-03-06T04:22:39;100725.06;;;4.45;87.55
85821;BME280;76265;50.102;8.854;2024-03-06T04:25:07;100729.63;;;4.43;87.91
85821;BME280;76265;50.102;8.854;2024-03-06T04:27:35;100729.00;;;4.38;87.69
85821;BME280;76265;50.102;8.854;2024-03-06T04:30:03;100738.72;;;4.39;88.01
85821;BME280;76265;50.102;8.854;2024-03-06T04:32:30;100742.34;;;4.38;88.44
85821;BME280;76265;50.102;8.854;2024-03-06T04:34:59;100744.22;;;4.36;88.37
85821;BME280;76265;50.102;8.854;2024-03-06T04:37:26;100751.44;;;4.33;88.72
85821;BME280;76265;50.102;8.854;2024-03-06T04:39:56;100743.44;;;4.33;88.54
85821;BME280;76265;50.102;8.854;2024-03-06T04:42:23;100750.66;;;4.31;88.81
85821;BME280;76265;50.102;8.854;2024-03-06T04:44:50;100748.00;;;4.31;88.86
85821;BME280;76265;50.102;8.854;2024-03-06T04:47:17;100749.88;;;4.29;88.39
85821;BME280;76265;50.102;8.854;2024-03-06T04:49:45;100737.47;;;4.28;88.52
85821;BME280;76265;50.102;8.854;2024-03-06T04:52:12;100750.13;;;4.25;88.67
85821;BME280;76265;50.102;8.854;2024-03-06T04:54:39;100761.84;;;4.21;88.76
85821;BME280;76265;50.102;8.854;2024-03-06T04:57:07;100761.16;;;4.17;88.46
85821;BME280;76265;50.102;8.854;2024-03-06T04:59:34;100763.97;;;4.14;88.79
85821;BME280;76265;50.102;8.854;2024-03-06T05:02:02;100778.25;;;4.13;89.12
85821;BME280;76265;50.102;8.854;2024-03-06T05:04:31;100777.47;;;4.11;89.68
85821;BME280;76265;50.102;8.854;2024-03-06T05:06:58;100786.41;;;4.10;90.08
85821;BME280;76265;50.102;8.854;2024-03-06T05:09:25;100792.59;;;4.11;89.76
85821;BME280;76265;50.102;8.854;2024-03-06T05:11:52;100782.94;;;4.08;90.15
85821;BME280;76265;50.102;8.854;2024-03-06T05:14:20;100774.31;;;4.03;90.09
85821;BME280;76265;50.102;8.854;2024-03-06T05:16:47;100791.09;;;4.05;90.33
85821;BME280;76265;50.102;8.854;2024-03-06T05:19:14;100796.38;;;4.07;90.61
85821;BME280;76265;50.102;8.854;2024-03-06T05:21:41;100792.91;;;4.05;90.88
85821;BME280;76265;50.102;8.854;2024-03-06T05:24:08;100796.53;;;4.04;90.96
85821;BME280;76265;50.102;8.854;2024-03-06T05:26:35;100797.47;;;4.03;90.70
85821;BME280;76265;50.102;8.854;2024-03-06T05:29:02;100790.31;;;4.03;90.66
85821;BME280;76265;50.102;8.854;2024-03-06T05:31:30;100793.94;;;4.02;89.71
85821;BME280;76265;50.102;8.854;2024-03-06T05:33:58;100793.13;;;4.00;89.88
85821;BME280;76265;50.102;8.854;2024-03-06T05:36:26;100804.75;;;3.99;89.91
85821;BME280;76265;50.102;8.854;2024-03-06T05:38:53;100802.94;;;3.99;89.48
85821;BME280;76265;50.102;8.854;2024-03-06T05:41:20;100810.94;;;3.99;89.81
85821;BME280;76265;50.102;8.854;2024-03-06T05:43:47;100810.06;;;3.99;90.62
85821;BME280;76265;50.102;8.854;2024-03-06T05:46:15;100812.75;;;3.99;90.62
85821;BME280;76265;50.102;8.854;2024-03-06T05:48:43;100822.47;;;4.00;90.34
85821;BME280;76265;50.102;8.854;2024-03-06T05:51:10;100811.03;;;3.98;90.35
85821;BME280;76265;50.102;8.854;2024-03-06T05:53:38;100817.22;;;3.98;90.23
85821;BME280;76265;50.102;8.854;2024-03-06T05:56:06;100811.97;;;3.97;89.97
85821;BME280;76265;50.102;8.854;2024-03-06T05:58:33;100825.28;;;3.97;90.16
85821;BME280;76265;50.102;8.854;2024-03-06T06:01:01;100829.00;;;3.93;91.21
85821;BME280;76265;50.102;8.854;2024-03-06T06:03:29;100831.69;;;3.93;90.95
85821;BME280;76265;50.102;8.854;2024-03-06T06:05:58;100831.81;;;3.90;91.56
85821;BME280;76265;50.102;8.854;2024-03-06T06:08:25;100840.63;;;3.92;91.10
85821;BME280;76265;50.102;8.854;2024-03-06T06:10:52;100845.94;;;3.92;91.61
85821;BME280;76265;50.102;8.854;2024-03-06T06:13:20;100844.06;;;3.94;90.88
85821;BME280;76265;50.102;8.854;2024-03-06T06:15:48;100846.72;;;3.94;90.73
85821;BME280;76265;50.102;8.854;2024-03-06T06:18:15;100848.47;;;3.95;90.61
85821;BME280;76265;50.102;8.854;2024-03-06T06:20:41;100854.63;;;3.97;90.67
85821;BME280;76265;50.102;8.854;2024-03-06T06:23:10;100847.41;;;3.99;91.11
85821;BME280;76265;50.102;8.854;2024-03-06T06:25:37;100849.13;;;4.00;90.54
85821;BME280;76265;50.102;8.854;2024-03-06T06:28:04;100849.91;;;4.02;91.12
85821;BME280;76265;50.102;8.854;2024-03-06T06:30:32;100840.03;;;4.04;91.28
85821;BME280;76265;50.102;8.854;2024-03-06T06:32:59;100851.56;;;4.05;90.94
85821;BME280;76265;50.102;8.854;2024-03-06T06:35:26;100855.75;;;4.10;91.30
85821;BME280;76265;50.102;8.854;2024-03-06T06:37:53;100851.97;;;4.14;90.99
85821;BME280;76265;50.102;8.854;2024-03-06T06:40:21;100856.16;;;4.20;90.86
85821;BME280;76265;50.102;8.854;2024-03-06T06:42:49;100856.72;;;4.26;91.35
85821;BME280;76265;50.102;8.854;2024-03-06T06:45:17;100869.84;;;4.31;91.52
85821;BME280;76265;50.102;8.854;2024-03-06T06:47:44;100867.09;;;4.32;91.73
85821;BME280;76265;50.102;8.854;2024-03-06T06:50:11;100884.53;;;4.40;91.66
85821;BME280;76265;50.102;8.854;2024-03-06T06:52:39;100884.22;;;4.46;91.84
85821;BME280;76265;50.102;8.854;2024-03-06T06:55:07;100883.78;;;4.55;92.20
85821;BME280;76265;50.102;8.854;2024-03-06T06:57:36;100887.78;;;4.63;91.42
85821;BME280;76265;50.102;8.854;2024-03-06T07:00:05;100891.81;;;4.72;91.53
85821;BME280;76265;50.102;8.854;2024-03-06T07:02:36;100890.41;;;4.82;91.29
85821;BME280;76265;50.102;8.854;2024-03-06T07:05:05;100891.03;;;4.87;90.79
85821;BME280;76265;50.102;8.854;2024-03-06T07:07:32;100889.75;;;4.94;90.89
85821;BME280;76265;50.102;8.854;2024-03-06T07:09:59;100899.22;;;5.02;90.54
85821;BME280;76265;50.102;8.854;2024-03-06T07:12:26;100900.59;;;5.09;90.55
85821;BME280;76265;50.102;8.854;2024-03-06T07:14:54;100909.94;;;5.17;90.41
85821;BME280;76265;50.102;8.854;2024-03-06T07:17:21;100899.66;;;5.27;89.47
85821;BME280;76265;50.102;8.854;2024-03-06T07:19:48;100915.03;;;5.39;89.55
85821;BME280;76265;50.102;8.854;2024-03-06T07:22:16;100920.78;;;5.49;88.85
85821;BME280;76265;50.102;8.854;2024-03-06T07:24:43;100928.38;;;5.56;88.47
85821;BME280;76265;50.102;8.854;2024-03-06T07:27:10;100924.25;;;5.67;88.28
85821;BME280;76265;50.102;8.854;2024-03-06T07:29:38;100929.13;;;5.76;87.70
85821;BME280;76265;50.102;8.854;2024-03-06T07:32:06;100938.38;;;5.86;87.54
85821;BME280;76265;50.102;8.854;2024-03-06T07:34:33;100931.94;;;5.90;87.41
85821;BME280;76265;50.102;8.854;2024-03-06T07:37:00;100933.28;;;5.99;87.22
85821;BME280;76265;50.102;8.854;2024-03-06T07:39:27;100948.19;;;6.03;86.76
85821;BME280;76265;50.102;8.854;2024-03-06T07:41:54;100952.78;;;6.01;86.74
85821;BME280;76265;50.102;8.854;2024-03-06T07:44:21;100951.03;;;6.00;86.79
85821;BME280;76265;50.102;8.854;2024-03-06T07:46:49;100948.19;;;6.03;87.02
85821;BME280;76265;50.102;8.854;2024-03-06T07:49:17;100951.75;;;6.03;86.87
85821;BME280;76265;50.102;8.854;2024-03-06T07:51:44;100950.78;;;6.04;86.43
85821;BME280;76265;50.102;8.854;2024-03-06T07:54:11;100957.78;;;6.07;86.72
85821;BME280;76265;50.102;8.854;2024-03-06T07:56:38;100961.31;;;6.07;86.75
85821;BME280;76265;50.102;8.854;2024-03-06T07:59:05;100959.06;;;6.15;87.24
85821;BME280;76265;50.102;8.854;2024-03-06T08:01:32;100967.75;;;6.21;86.32
85821;BME280;76265;50.102;8.854;2024-03-06T08:03:59;100958.41;;;6.28;86.09
85821;BME280;76265;50.102;8.854;2024-03-06T08:06:28;100965.13;;;6.35;86.35
85821;BME280;76265;50.102;8.854;2024-03-06T08:08:58;100962.88;;;6.43;86.02
85821;BME280;76265;50.102;8.854;2024-03-06T08:11:26;100968.69;;;6.51;85.65
85821;BME280;76265;50.102;8.854;2024-03-06T08:13:57;100964.72;;;6.58;85.56
85821;BME280;76265;50.102;8.854;2024-03-06T08:16:25;100952.38;;;6.71;85.00
85821;BME280;76265;50.102;8.854;2024-03-06T08:18:52;100966.34;;;6.76;84.62
85821;BME280;76265;50.102;8.854;2024-03-06T08:21:18;100960.44;;;6.86;84.77
85821;BME280;76265;50.102;8.854;2024-03-06T08:23:47;100967.97;;;6.95;84.60
85821;BME280;76265;50.102;8.854;2024-03-06T08:26:15;100959.38;;;7.04;84.59
85821;BME280;76265;50.102;8.854;2024-03-06T08:28:42;100965.25;;;7.10;84.40
85821;BME280;76265;50.102;8.854;2024-03-06T08:31:09;100972.75;;;7.20;84.84
85821;BME280;76265;50.102;8.854;2024-03-06T08:33:36;100973.16;;;7.28;84.42
85821;BME280;76265;50.102;8.854;2024-03-06T08:36:03;100971.75;;;7.36;84.18
85821;BME280;76265;50.102;8.854;2024-03-06T08:38:31;100972.94;;;7.47;83.70
85821;BME280;76265;50.102;8.854;2024-03-06T08:40:59;100979.63;;;7.54;83.51
85821;BME280;76265;50.102;8.854;2024-03-06T08:43:26;100979.06;;;7.63;83.56
85821;BME280;76265;50.102;8.854;2024-03-06T08:45:53;100970.06;;;7.64;82.92
85821;BME280;76265;50.102;8.854;2024-03-06T08:48:21;100975.47;;;7.78;82.98
85821;BME280;76265;50.102;8.854;2024-03-06T08:50:48;100977.66;;;7.86;82.92
85821;BME280;76265;50.102;8.854;2024-03-06T08:53:16;100984.31;;;7.94;82.75
85821;BME280;76265;50.102;8.854;2024-03-06T08:55:43;100983.72;;;8.03;82.26
85821;BME280;76265;50.102;8.854;2024-03-06T08:58:12;100983.63;;;8.05;81.80
85821;BME280;76265;50.102;8.854;2024-03-06T09:00:39;100981.69;;;8.07;81.51
85821;BME280;76265;50.102;8.854;2024-03-06T09:03:06;100991.00;;;8.16;82.17
85821;BME280;76265;50.102;8.854;2024-03-06T09:05:33;100993.31;;;8.22;82.35
85821;BME280;76265;50.102;8.854;2024-03-06T09:08:00;100992.16;;;8.26;82.00
85821;BME280;76265;50.102;8.854;2024-03-06T09:10:28;100996.38;;;8.30;81.65
85821;BME280;76265;50.102;8.854;2024-03-06T09:12:55;100990.72;;;8.35;82.27
85821;BME280;76265;50.102;8.854;2024-03-06T09:15:24;100989.38;;;8.42;82.13
85821;BME280;76265;50.102;8.854;2024-03-06T09:17:51;100991.38;;;8.52;81.47
85821;BME280;76265;50.102;8.854;2024-03-06T09:20:18;100988.69;;;8.52;81.15
85821;BME280;76265;50.102;8.854;2024-03-06T09:22:45;100988.41;;;8.57;80.90
85821;BME280;76265;50.102;8.854;2024-03-06T09:25:12;100986.06;;;8.65;81.01
85821;BME280;76265;50.102;8.854;2024-03-06T09:27:40;100986.75;;;8.69;80.91
85821;BME280;76265;50.102;8.854;2024-03-06T09:30:08;100997.09;;;8.75;81.16
85821;BME280;76265;50.102;8.854;2024-03-06T09:32:37;100995.53;;;8.85;80.65
85821;BME280;76265;50.102;8.854;2024-03-06T09:35:05;100996.75;;;8.93;80.48
85821;BME280;76265;50.102;8.854;2024-03-06T09:37:32;100994.13;;;9.06;80.10
85821;BME280;76265;50.102;8.854;2024-03-06T09:39:59;100996.16;;;9.15;80.28
85821;BME280;76265;50.102;8.854;2024-03-06T09:42:26;101003.84;;;9.21;80.01
85821;BME280;76265;50.102;8.854;2024-03-06T09:44:53;101002.16;;;9.33;79.47
85821;BME280;76265;50.102;8.854;2024-03-06T09:47:22;100991.06;;;9.38;78.92
85821;BME280;76265;50.102;8.854;2024-03-06T09:49:52;101000.16;;;9.49;78.01
85821;BME280;76265;50.102;8.854;2024-03-06T09:52:20;100992.31;;;9.59;77.49
85821;BME280;76265;50.102;8.854;2024-03-06T09:54:48;100993.75;;;9.77;76.86
85821;BME280;76265;50.102;8.854;2024-03-06T09:57:16;100985.56;;;9.92;76.37
85821;BME280;76265;50.102;8.854;2024-03-06T09:59:43;100991.13;;;10.14;76.33
85821;BME280;76265;50.102;8.854;2024-03-06T10:02:19;100992.22;;;10.37;75.47
85821;BME280;76265;50.102;8.854;2024-03-06T10:04:54;100983.09;;;10.63;74.40
85821;BME280;76265;50.102;8.854;2024-03-06T10:07:21;100977.75;;;10.87;73.50
85821;BME280;76265;50.102;8.854;2024-03-06T10:09:48;100982.28;;;11.10;72.52
85821;BME280;76265;50.102;8.854;2024-03-06T10:12:17;100973.31;;;11.34;71.80
85821;BME280;76265;50.102;8.854;2024-03-06T10:14:49;100976.09;;;11.56;70.00
85821;BME280;76265;50.102;8.854;2024-03-06T10:17:19;100980.97;;;11.86;68.26
85821;BME280;76265;50.102;8.854;2024-03-06T10:19:48;100977.47;;;12.19;69.12
85821;BME280;76265;50.102;8.854;2024-03-06T10:22:19;100979.28;;;12.52;68.54
85821;BME280;76265;50.102;8.854;2024-03-06T10:24:46;100975.91;;;12.82;67.05
85821;BME280;76265;50.102;8.854;2024-03-06T10:27:17;100987.63;;;13.15;65.65
85821;BME280;76265;50.102;8.854;2024-03-06T10:29:44;100981.56;;;13.54;65.96
85821;BME280;76265;50.102;8.854;2024-03-06T10:32:16;100983.34;;;13.86;62.13
85821;BME280;76265;50.102;8.854;2024-03-06T10:34:44;100983.31;;;14.28;61.80
85821;BME280;76265;50.102;8.854;2024-03-06T10:37:11;100987.50;;;14.72;61.93
85821;BME280;76265;50.102;8.854;2024-03-06T10:39:42;100993.84;;;15.01;58.80
85821;BME280;76265;50.102;8.854;2024-03-06T10:42:12;100980.88;;;15.24;59.34
85821;BME280;76265;50.102;8.854;2024-03-06T10:44:45;100980.75;;;15.64;55.72
85821;BME280;76265;50.102;8.854;2024-03-06T10:47:17;100974.09;;;16.06;56.33
85821;BME280;76265;50.102;8.854;2024-03-06T10:49:45;100992.06;;;16.26;54.36
85821;BME280;76265;50.102;8.854;2024-03-06T10:52:14;100989.59;;;16.33;52.76
85821;BME280;76265;50.102;8.854;2024-03-06T10:54:44;100980.50;;;16.51;55.49
85821;BME280;76265;50.102;8.854;2024-03-06T10:57:12;100984.47;;;16.67;54.54
85821;BME280;76265;50.102;8.854;2024-03-06T10:59:40;100988.19;;;16.66;54.08
85821;BME280;76265;50.102;8.854;2024-03-06T11:02:09;100985.56;;;16.74;52.67
85821;BME280;76265;50.102;8.854;2024-03-06T11:04:39;100985.97;;;16.79;52.06
85821;BME280;76265;50.102;8.854;2024-03-06T11:07:08;100994.97;;;16.89;50.91
85821;BME280;76265;50.102;8.854;2024-03-06T11:09:36;100991.88;;;17.19;52.30
85821;BME280;76265;50.102;8.854;2024-03-06T11:12:07;100985.34;;;17.48;46.71
85821;BME280;76265;50.102;8.854;2024-03-06T11:14:36;100988.84;;;17.76;48.24
85821;BME280;76265;50.102;8.854;2024-03-06T11:17:05;100991.22;;;17.97;47.45
85821;BME280;76265;50.102;8.854;2024-03-06T11:23:03;100997.00;;;18.20;43.23
85821;BME280;76265;50.102;8.854;2024-03-06T11:26:01;101001.81;;;18.00;43.13
85821;BME280;76265;50.102;8.854;2024-03-06T11:28:32;100990.56;;;17.77;44.13
85821;BME280;76265;50.102;8.854;2024-03-06T11:31:00;100996.63;;;17.53;46.78
85821;BME280;76265;50.102;8.854;2024-03-06T11:33:28;100985.09;;;17.23;45.87
85821;BME280;76265;50.102;8.854;2024-03-06T11:36:17;100990.69;;;17.04;44.95
85821;BME280;76265;50.102;8.854;2024-03-06T11:38:52;100996.38;;;16.93;47.37
85821;BME280;76265;50.102;8.854;2024-03-06T11:41:21;101000.38;;;16.61;50.01
85821;BME280;76265;50.102;8.854;2024-03-06T11:43:50;101000.75;;;16.39;48.90
85821;BME280;76265;50.102;8.854;2024-03-06T11:46:19;101003.22;;;16.23;49.34
85821;BME280;76265;50.102;8.854;2024-03-06T11:48:53;101002.16;;;15.96;49.23
85821;BME280;76265;50.102;8.854;2024-03-06T11:51:21;101005.47;;;15.81;50.47
85821;BME280;76265;50.102;8.854;2024-03-06T11:53:49;101002.91;;;15.69;50.84
85821;BME280;76265;50.102;8.854;2024-03-06T11:56:17;100999.91;;;15.44;50.99
85821;BME280;76265;50.102;8.854;2024-03-06T11:58:45;101008.75;;;15.26;51.15
85821;BME280;76265;50.102;8.854;2024-03-06T12:01:14;101005.28;;;15.05;50.76
85821;BME280;76265;50.102;8.854;2024-03-06T12:03:41;101006.97;;;14.96;51.41
85821;BME280;76265;50.102;8.854;2024-03-06T12:06:09;101007.56;;;14.90;51.51
85821;BME280;76265;50.102;8.854;2024-03-06T12:08:36;100993.50;;;14.85;52.70
85821;BME280;76265;50.102;8.854;2024-03-06T12:11:04;101007.22;;;14.84;52.07
85821;BME280;76265;50.102;8.854;2024-03-06T12:13:32;101013.63;;;14.73;52.78
85821;BME280;76265;50.102;8.854;2024-03-06T12:16:04;101009.72;;;14.56;51.96
85821;BME280;76265;50.102;8.854;2024-03-06T12:18:32;101013.41;;;14.55;53.50
85821;BME280;76265;50.102;8.854;2024-03-06T12:21:00;101012.97;;;14.50;54.25
85821;BME280;76265;50.102;8.854;2024-03-06T12:23:28;101020.19;;;14.40;53.80
85821;BME280;76265;50.102;8.854;2024-03-06T12:26:03;101010.41;;;14.28;53.73
85821;BME280;76265;50.102;8.854;2024-03-06T12:28:30;101014.44;;;14.12;53.90
85821;BME280;76265;50.102;8.854;2024-03-06T12:30:57;101017.66;;;13.97;54.58
85821;BME280;76265;50.102;8.854;2024-03-06T12:33:26;101017.06;;;13.93;55.05
85821;BME280;76265;50.102;8.854;2024-03-06T12:36:06;101021.28;;;13.86;55.24
85821;BME280;76265;50.102;8.854;2024-03-06T12:38:36;101023.53;;;13.81;55.36
85821;BME280;76265;50.102;8.854;2024-03-06T12:41:03;101020.03;;;13.69;55.58
85821;BME280;76265;50.102;8.854;2024-03-06T12:43:31;101022.28;;;13.64;55.91
85821;BME280;76265;50.102;8.854;2024-03-06T12:46:00;101020.06;;;13.58;56.46
85821;BME280;76265;50.102;8.854;2024-03-06T12:48:28;101018.22;;;13.59;56.70
85821;BME280;76265;50.102;8.854;2024-03-06T12:50:56;101014.53;;;13.60;56.57
85821;BME280;76265;50.102;8.854;2024-03-06T12:53:31;101020.81;;;13.60;56.85
85821;BME280;76265;50.102;8.854;2024-03-06T12:55:58;101016.09;;;13.62;56.70
85821;BME280;76265;50.102;8.854;2024-03-06T12:58:27;101020.16;;;13.68;56.63
85821;BME280;76265;50.102;8.854;2024-03-06T13:00:54;101022.50;;;13.61;56.47
85821;BME280;76265;50.102;8.854;2024-03-06T13:03:22;101014.53;;;13.60;56.72
85821;BME280;76265;50.102;8.854;2024-03-06T13:05:49;101019.22;;;13.58;56.28